sensor_id;sensor_type;location;lat;lon;timestamp;pressure;altitude;pressure_sealevel;temperature;humidity
65376;BME280;51976;47.332;9.404;2023-04-01T00:01:54;91711.41;;;6.49;62.90
65376;BME280;51976;47.332;9.404;2023-04-01T00:04:19;91735.22;;;6.51;62.66
65376;BME280;51976;47.332;9.404;2023-04-01T00:06:45;91732.69;;;6.35;63.35
65376;BME280;51976;47.332;9.404;2023-04-01T00:09:12;91750.81;;;6.43;63.47
65376;BME280;51976;47.332;9.404;2023-04-01T00:11:38;91754.81;;;6.46;63.35
65376;BME280;51976;47.332;9.404;2023-04-01T00:14:04;91743.81;;;6.48;63.15
65376;BME280;51976;47.332;9.404;2023-04-01T00:16:30;91751.38;;;6.40;63.44
65376;BME280;51976;47.332;9.404;2023-04-01T00:18:55;91734.88;;;6.57;62.19
65376;BME280;51976;47.332;9.404;2023-04-01T00:21:21;91751.72;;;6.58;62.50
65376;BME280;51976;47.332;9.404;2023-04-01T00:23:48;91739.94;;;6.59;62.48
65376;BME280;51976;47.332;9.404;2023-04-01T00:26:14;91737.06;;;6.55;62.45
65376;BME280;51976;47.332;9.404;2023-04-01T00:28:44;91745.53;;;6.62;61.72
65376;BME280;51976;47.332;9.404;2023-04-01T00:31:10;91736.41;;;6.63;61.43
65376;BME280;51976;47.332;9.404;2023-04-01T00:33:36;91742.69;;;6.77;61.47
65376;BME280;51976;47.332;9.404;2023-04-01T00:36:15;91713.28;;;6.49;61.78
65376;BME280;51976;47.332;9.404;2023-04-01T00:38:42;91744.44;;;6.63;61.75
65376;BME280;51976;47.332;9.404;2023-04-01T00:41:09;91739.88;;;6.64;61.50
65376;BME280;51976;47.332;9.404;2023-04-01T00:43:39;91737.44;;;6.67;61.38
65376;BME280;51976;47.332;9.404;2023-04-01T00:46:05;91739.31;;;6.67;60.85
65376;BME280;51976;47.332;9.404;2023-04-01T00:48:33;91736.06;;;6.70;61.12
65376;BME280;51976;47.332;9.404;2023-04-01T00:51:15;91728.94;;;6.60;61.62
65376;BME280;51976;47.332;9.404;2023-04-01T00:53:44;91742.97;;;6.76;61.09
65376;BME280;51976;47.332;9.404;2023-04-01T00:56:13;91736.06;;;6.70;61.14
65376;BME280;51976;47.332;9.404;2023-04-01T00:58:44;91728.22;;;6.55;60.90
65376;BME280;51976;47.332;9.404;2023-04-01T01:01:11;91755.06;;;6.73;60.91
65376;BME280;51976;47.332;9.404;2023-04-01T01:03:37;91743.25;;;6.74;60.73
65376;BME280;51976;47.332;9.404;2023-04-01T01:09:28;91743.69;;;6.58;61.55
65376;BME280;51976;47.332;9.404;2023-04-01T01:12:06;91738.84;;;6.60;61.54
65376;BME280;51976;47.332;9.404;2023-04-01T01:14:45;91739.66;;;6.60;61.65
65376;BME280;51976;47.332;9.404;2023-04-01T01:17:23;91727.19;;;6.51;61.50
65376;BME280;51976;47.332;9.404;2023-04-01T01:20:40;91728.44;;;6.58;61.92
65376;BME280;51976;47.332;9.404;2023-04-01T01:23:57;91734.88;;;6.57;61.86
65376;BME280;51976;47.332;9.404;2023-04-01T01:29:32;91745.88;;;6.56;63.22
65376;BME280;51976;47.332;9.404;2023-04-01T01:32:33;91726.03;;;6.33;64.18
65376;BME280;51976;47.332;9.404;2023-04-01T01:35:27;91734.28;;;6.36;64.48
65376;BME280;51976;47.332;9.404;2023-04-01T01:37:58;91713.81;;;6.27;64.03
65376;BME280;51976;47.332;9.404;2023-04-01T01:40:26;91717.84;;;6.24;64.05
65376;BME280;51976;47.332;9.404;2023-04-01T01:42:55;91726.31;;;6.31;64.45
65376;BME280;51976;47.332;9.404;2023-04-01T01:45:23;91707.94;;;5.96;66.16
65376;BME280;51976;47.332;9.404;2023-04-01T01:47:51;91725.94;;;6.14;66.70
65376;BME280;51976;47.332;9.404;2023-04-01T01:50:18;91727.03;;;6.13;67.38
65376;BME280;51976;47.332;9.404;2023-04-01T01:52:44;91719.75;;;5.85;67.80
65376;BME280;51976;47.332;9.404;2023-04-01T01:55:33;91724.56;;;5.93;68.00
65376;BME280;51976;47.332;9.404;2023-04-01T01:58:16;91720.00;;;5.93;67.78
65376;BME280;51976;47.332;9.404;2023-04-01T02:00:46;91704.28;;;5.82;67.45
65376;BME280;51976;47.332;9.404;2023-04-01T02:03:15;91685.38;;;5.73;67.06
65376;BME280;51976;47.332;9.404;2023-04-01T02:05:42;91723.72;;;5.97;66.23
65376;BME280;51976;47.332;9.404;2023-04-01T02:08:21;91720.09;;;6.12;66.15
65376;BME280;51976;47.332;9.404;2023-04-01T02:11:00;91725.03;;;6.00;65.96
65376;BME280;51976;47.332;9.404;2023-04-01T02:13:37;91711.81;;;6.08;65.15
65376;BME280;51976;47.332;9.404;2023-04-01T02:16:11;91711.50;;;6.15;64.48
65376;BME280;51976;47.332;9.404;2023-04-01T02:18:38;91714.69;;;6.17;64.53
65376;BME280;51976;47.332;9.404;2023-04-01T02:21:05;91713.09;;;6.16;63.96
65376;BME280;51976;47.332;9.404;2023-04-01T02:23:34;91702.44;;;6.11;63.75
65376;BME280;51976;47.332;9.404;2023-04-01T02:26:01;91717.00;;;6.00;64.35
65376;BME280;51976;47.332;9.404;2023-04-01T02:28:29;91708.31;;;6.13;63.65
65376;BME280;51976;47.332;9.404;2023-04-01T02:30:57;91712.09;;;6.07;63.54
65376;BME280;51976;47.332;9.404;2023-04-01T02:33:26;91708.63;;;6.06;63.42
65376;BME280;51976;47.332;9.404;2023-04-01T02:35:52;91699.28;;;6.04;63.20
65376;BME280;51976;47.332;9.404;2023-04-01T02:38:18;91697.41;;;6.04;63.12
65376;BME280;51976;47.332;9.404;2023-04-01T02:40:46;91691.53;;;6.02;63.40
65376;BME280;51976;47.332;9.404;2023-04-01T02:43:13;91688.06;;;6.02;63.63
65376;BME280;51976;47.332;9.404;2023-04-01T02:45:38;91701.41;;;6.07;63.03
65376;BME280;51976;47.332;9.404;2023-04-01T02:48:04;91692.56;;;6.06;63.11
65376;BME280;51976;47.332;9.404;2023-04-01T02:50:29;91693.31;;;6.12;63.25
65376;BME280;51976;47.332;9.404;2023-04-01T02:52:55;91683.59;;;5.97;62.40
65376;BME280;51976;47.332;9.404;2023-04-01T02:55:21;91689.63;;;6.08;62.80
65376;BME280;51976;47.332;9.404;2023-04-01T02:57:46;91694.41;;;6.11;62.44
65376;BME280;51976;47.332;9.404;2023-04-01T03:00:12;91701.69;;;6.05;62.45
65376;BME280;51976;47.332;9.404;2023-04-01T03:02:38;91683.22;;;6.04;62.61
65376;BME280;51976;47.332;9.404;2023-04-01T03:05:04;91676.25;;;6.08;62.58
65376;BME280;51976;47.332;9.404;2023-04-01T03:07:30;91684.91;;;6.00;62.20
65376;BME280;51976;47.332;9.404;2023-04-01T03:09:56;91690.69;;;6.07;62.30
65376;BME280;51976;47.332;9.404;2023-04-01T03:12:21;91692.47;;;6.17;61.87
65376;BME280;51976;47.332;9.404;2023-04-01T03:14:47;91686.19;;;6.02;62.62
65376;BME280;51976;47.332;9.404;2023-04-01T03:17:12;91679.06;;;5.93;62.60
65376;BME280;51976;47.332;9.404;2023-04-01T03:19:37;91661.59;;;5.71;63.13
65376;BME280;51976;47.332;9.404;2023-04-01T03:22:03;91685.78;;;5.90;62.89
65376;BME280;51976;47.332;9.404;2023-04-01T03:24:28;91676.09;;;5.65;63.01
65376;BME280;51976;47.332;9.404;2023-04-01T03:26:53;91693.91;;;5.75;63.31
65376;BME280;51976;47.332;9.404;2023-04-01T03:29:19;91696.53;;;5.80;63.23
65376;BME280;51976;47.332;9.404;2023-04-01T03:31:44;91707.47;;;5.84;63.09
65376;BME280;51976;47.332;9.404;2023-04-01T03:34:10;91700.50;;;5.88;62.86
65376;BME280;51976;47.332;9.404;2023-04-01T03:36:36;91699.72;;;5.82;62.86
65376;BME280;51976;47.332;9.404;2023-04-01T03:39:01;91702.34;;;5.92;62.87
65376;BME280;51976;47.332;9.404;2023-04-01T03:41:28;91712.66;;;6.04;62.47
65376;BME280;51976;47.332;9.404;2023-04-01T03:43:53;91706.34;;;5.95;62.99
65376;BME280;51976;47.332;9.404;2023-04-01T03:46:19;91708.88;;;6.10;63.01
65376;BME280;51976;47.332;9.404;2023-04-01T03:48:45;91688.03;;;6.07;62.49
65376;BME280;51976;47.332;9.404;2023-04-01T03:51:10;91703.13;;;6.22;61.87
65376;BME280;51976;47.332;9.404;2023-04-01T03:53:36;91694.00;;;6.28;62.05
65376;BME280;51976;47.332;9.404;2023-04-01T03:56:05;91703.47;;;6.15;61.95
65376;BME280;51976;47.332;9.404;2023-04-01T03:58:31;91700.22;;;6.18;61.86
65376;BME280;51976;47.332;9.404;2023-04-01T04:00:57;91696.81;;;6.13;61.34
65376;BME280;51976;47.332;9.404;2023-04-01T04:03:22;91695.72;;;6.14;61.39
65376;BME280;51976;47.332;9.404;2023-04-01T04:05:48;91706.63;;;6.22;61.09
65376;BME280;51976;47.332;9.404;2023-04-01T04:08:14;91703.28;;;6.06;60.75
65376;BME280;51976;47.332;9.404;2023-04-01T04:10:39;91701.34;;;6.12;61.30
65376;BME280;51976;47.332;9.404;2023-04-01T04:13:06;91677.25;;;5.83;62.17
65376;BME280;51976;47.332;9.404;2023-04-01T04:15:31;91697.00;;;5.87;61.80
65376;BME280;51976;47.332;9.404;2023-04-01T04:17:57;91700.00;;;5.81;61.95
65376;BME280;51976;47.332;9.404;2023-04-01T04:20:22;91695.69;;;5.90;61.34
65376;BME280;51976;47.332;9.404;2023-04-01T04:22:47;91693.03;;;5.85;60.90
65376;BME280;51976;47.332;9.404;2023-04-01T04:25:13;91674.00;;;5.91;60.28
65376;BME280;51976;47.332;9.404;2023-04-01T04:27:39;91692.94;;;6.00;60.18
65376;BME280;51976;47.332;9.404;2023-04-01T04:30:06;91697.53;;;5.94;60.53
65376;BME280;51976;47.332;9.404;2023-04-01T04:32:32;91699.34;;;5.99;60.45
65376;BME280;51976;47.332;9.404;2023-04-01T04:34:57;91712.94;;;6.02;60.04
65376;BME280;51976;47.332;9.404;2023-04-01T04:37:22;91715.56;;;6.07;59.79
65376;BME280;51976;47.332;9.404;2023-04-01T04:39:48;91715.41;;;5.99;60.33
65376;BME280;51976;47.332;9.404;2023-04-01T04:42:13;91716.31;;;6.13;60.14
65376;BME280;51976;47.332;9.404;2023-04-01T04:44:39;91703.47;;;6.15;60.14
65376;BME280;51976;47.332;9.404;2023-04-01T04:47:04;91703.63;;;6.00;nan
65376;BME280;51976;47.332;9.404;2023-04-01T04:49:30;91667.88;;;5.86;59.91
65376;BME280;51976;47.332;9.404;2023-04-01T04:51:55;91704.91;;;6.02;59.82
65376;BME280;51976;47.332;9.404;2023-04-01T04:54:21;91708.97;;;6.00;60.42
65376;BME280;51976;47.332;9.404;2023-04-01T04:56:46;91702.25;;;6.02;60.54
65376;BME280;51976;47.332;9.404;2023-04-01T04:59:12;91710.66;;;5.91;61.35
65376;BME280;51976;47.332;9.404;2023-04-01T05:01:38;91703.72;;;5.90;61.90
65376;BME280;51976;47.332;9.404;2023-04-01T05:04:03;91703.75;;;5.79;62.19
65376;BME280;51976;47.332;9.404;2023-04-01T05:06:29;91722.91;;;5.97;61.67
65376;BME280;51976;47.332;9.404;2023-04-01T05:08:55;91715.34;;;6.04;61.71
65376;BME280;51976;47.332;9.404;2023-04-01T05:11:21;91711.19;;;5.88;62.13
65376;BME280;51976;47.332;9.404;2023-04-01T05:13:47;91707.81;;;6.06;62.05
65376;BME280;51976;47.332;9.404;2023-04-01T05:16:15;91707.81;;;6.06;62.30
65376;BME280;51976;47.332;9.404;2023-04-01T05:18:41;91702.59;;;5.96;62.76
65376;BME280;51976;47.332;9.404;2023-04-01T05:21:08;91709.38;;;6.12;62.99
65376;BME280;51976;47.332;9.404;2023-04-01T05:23:34;91700.31;;;6.08;62.39
65376;BME280;51976;47.332;9.404;2023-04-01T05:26:05;91725.25;;;6.03;62.95
65376;BME280;51976;47.332;9.404;2023-04-01T05:28:30;91725.63;;;5.87;63.22
65376;BME280;51976;47.332;9.404;2023-04-01T05:30:59;91738.16;;;5.96;63.80
65376;BME280;51976;47.332;9.404;2023-04-01T05:33:25;91747.03;;;5.92;64.47
65376;BME280;51976;47.332;9.404;2023-04-01T05:35:50;91741.09;;;5.61;65.44
65376;BME280;51976;47.332;9.404;2023-04-01T05:38:16;91768.19;;;5.83;65.45
65376;BME280;51976;47.332;9.404;2023-04-01T05:40:41;91769.00;;;5.78;65.89
65376;BME280;51976;47.332;9.404;2023-04-01T05:43:07;91750.75;;;5.52;66.06
65376;BME280;51976;47.332;9.404;2023-04-01T05:45:32;91761.72;;;5.50;66.54
65376;BME280;51976;47.332;9.404;2023-04-01T05:47:58;91739.63;;;5.39;66.59
65376;BME280;51976;47.332;9.404;2023-04-01T05:50:24;91751.59;;;5.03;67.90
65376;BME280;51976;47.332;9.404;2023-04-01T05:52:49;91766.25;;;5.10;67.97
65376;BME280;51976;47.332;9.404;2023-04-01T05:55:15;91774.03;;;5.02;68.70
65376;BME280;51976;47.332;9.404;2023-04-01T05:57:40;91752.38;;;5.08;68.68
65376;BME280;51976;47.332;9.404;2023-04-01T06:00:06;91754.00;;;4.99;68.93
65376;BME280;51976;47.332;9.404;2023-04-01T06:02:32;91756.13;;;5.07;69.45
65376;BME280;51976;47.332;9.404;2023-04-01T06:05:11;91751.56;;;5.08;68.61
65376;BME280;51976;47.332;9.404;2023-04-01T06:07:37;91759.84;;;5.12;68.38
65376;BME280;51976;47.332;9.404;2023-04-01T06:10:10;91759.31;;;5.09;68.55
65376;BME280;51976;47.332;9.404;2023-04-01T06:12:57;91742.78;;;5.02;68.12
65376;BME280;51976;47.332;9.404;2023-04-01T06:15:38;91751.44;;;5.28;68.42
65376;BME280;51976;47.332;9.404;2023-04-01T06:18:45;91716.16;;;4.92;68.71
65376;BME280;51976;47.332;9.404;2023-04-01T06:21:32;91762.13;;;5.28;68.09
65376;BME280;51976;47.332;9.404;2023-04-01T06:24:24;91762.25;;;5.52;66.99
65376;BME280;51976;47.332;9.404;2023-04-01T06:27:07;91753.66;;;5.60;66.37
65376;BME280;51976;47.332;9.404;2023-04-01T06:35:38;91764.75;;;5.77;66.17
65376;BME280;51976;47.332;9.404;2023-04-01T06:41:12;91749.84;;;6.05;64.62
65376;BME280;51976;47.332;9.404;2023-04-01T06:43:54;91740.28;;;5.99;65.19
65376;BME280;51976;47.332;9.404;2023-04-01T06:46:41;91744.22;;;6.07;64.83
65376;BME280;51976;47.332;9.404;2023-04-01T06:49:36;91733.34;;;6.27;61.90
65376;BME280;51976;47.332;9.404;2023-04-01T06:52:25;91736.13;;;6.65;61.59
65376;BME280;51976;47.332;9.404;2023-04-01T06:54:58;91728.28;;;6.73;61.61
65376;BME280;51976;47.332;9.404;2023-04-01T06:57:32;91734.94;;;6.76;62.01
65376;BME280;51976;47.332;9.404;2023-04-01T07:00:02;91734.16;;;6.75;61.26
65376;BME280;51976;47.332;9.404;2023-04-01T07:02:39;91706.22;;;6.82;60.15
65376;BME280;51976;47.332;9.404;2023-04-01T07:05:07;91726.53;;;7.25;59.70
65376;BME280;51976;47.332;9.404;2023-04-01T07:07:38;91729.28;;;7.20;59.56
65376;BME280;51976;47.332;9.404;2023-04-01T07:10:25;91717.31;;;7.69;58.58
65376;BME280;51976;47.332;9.404;2023-04-01T07:12:55;91716.03;;;7.66;58.00
65376;BME280;51976;47.332;9.404;2023-04-01T07:15:36;91725.38;;;7.69;57.82
65376;BME280;51976;47.332;9.404;2023-04-01T07:18:12;91678.13;;;7.54;57.31
65376;BME280;51976;47.332;9.404;2023-04-01T07:20:41;91713.56;;;7.70;57.28
65376;BME280;51976;47.332;9.404;2023-04-01T07:23:16;91724.44;;;7.60;57.11
65376;BME280;51976;47.332;9.404;2023-04-01T07:25:48;91711.56;;;7.62;57.10
65376;BME280;51976;47.332;9.404;2023-04-01T07:28:16;91723.59;;;7.64;57.20
65376;BME280;51976;47.332;9.404;2023-04-01T07:31:09;91683.66;;;7.44;57.05
65376;BME280;51976;47.332;9.404;2023-04-01T07:33:50;91722.72;;;7.50;56.83
65376;BME280;51976;47.332;9.404;2023-04-01T07:36:26;91729.72;;;7.46;57.04
65376;BME280;51976;47.332;9.404;2023-04-01T07:39:09;91694.09;;;7.27;57.28
65376;BME280;51976;47.332;9.404;2023-04-01T07:42:01;91713.00;;;7.35;57.70
65376;BME280;51976;47.332;9.404;2023-04-01T07:44:54;91751.78;;;7.62;57.85
65376;BME280;51976;47.332;9.404;2023-04-01T07:50:27;91726.63;;;7.58;58.33
65376;BME280;51976;47.332;9.404;2023-04-01T07:53:17;91730.31;;;7.62;58.19
65376;BME280;51976;47.332;9.404;2023-04-01T07:55:53;91735.59;;;7.48;58.20
65376;BME280;51976;47.332;9.404;2023-04-01T07:58:48;91721.56;;;7.56;57.71
65376;BME280;51976;47.332;9.404;2023-04-01T08:01:31;91726.16;;;7.69;57.15
65376;BME280;51976;47.332;9.404;2023-04-01T08:04:21;91724.84;;;7.86;57.04
65376;BME280;51976;47.332;9.404;2023-04-01T08:07:02;91717.97;;;7.79;57.60
65376;BME280;51976;47.332;9.404;2023-04-01T08:09:52;91732.53;;;7.92;57.64
65376;BME280;51976;47.332;9.404;2023-04-01T08:12:45;91736.25;;;7.77;58.87
65376;BME280;51976;47.332;9.404;2023-04-01T08:15:28;91753.66;;;7.61;60.90
65376;BME280;51976;47.332;9.404;2023-04-01T08:18:09;91769.59;;;7.34;61.80
65376;BME280;51976;47.332;9.404;2023-04-01T08:20:52;91774.97;;;7.34;62.59
65376;BME280;51976;47.332;9.404;2023-04-01T08:23:27;91769.03;;;7.37;61.89
65376;BME280;51976;47.332;9.404;2023-04-01T08:25:58;91765.97;;;7.25;62.61
65376;BME280;51976;47.332;9.404;2023-04-01T08:28:33;91750.91;;;7.29;62.66
65376;BME280;51976;47.332;9.404;2023-04-01T08:31:23;91761.69;;;7.42;63.42
65376;BME280;51976;47.332;9.404;2023-04-01T08:33:53;91759.31;;;7.60;63.47
65376;BME280;51976;47.332;9.404;2023-04-01T08:36:23;91748.94;;;7.91;62.98
65376;BME280;51976;47.332;9.404;2023-04-01T08:39:01;91749.22;;;7.70;61.34
65376;BME280;51976;47.332;9.404;2023-04-01T08:41:59;91747.22;;;7.62;61.64
65376;BME280;51976;47.332;9.404;2023-04-01T08:45:00;91729.13;;;7.87;61.28
65376;BME280;51976;47.332;9.404;2023-04-01T08:47:45;91740.31;;;7.75;60.44
65376;BME280;51976;47.332;9.404;2023-04-01T08:50:31;91744.94;;;7.69;60.94
65376;BME280;51976;47.332;9.404;2023-04-01T08:53:31;91752.41;;;7.72;61.74
65376;BME280;51976;47.332;9.404;2023-04-01T08:56:10;91746.56;;;7.52;59.75
65376;BME280;51976;47.332;9.404;2023-04-01T09:01:57;91747.88;;;7.54;60.48
65376;BME280;51976;47.332;9.404;2023-04-01T09:05:05;91738.66;;;7.60;60.68
65376;BME280;51976;47.332;9.404;2023-04-01T09:07:51;91755.31;;;7.76;60.79
65376;BME280;51976;47.332;9.404;2023-04-01T09:10:32;91748.66;;;7.73;60.27
65376;BME280;51976;47.332;9.404;2023-04-01T09:13:41;91744.75;;;7.98;60.91
65376;BME280;51976;47.332;9.404;2023-04-01T09:16:38;91754.41;;;7.99;60.61
65376;BME280;51976;47.332;9.404;2023-04-01T09:19:28;91754.50;;;7.94;61.18
65376;BME280;51976;47.332;9.404;2023-04-01T09:22:17;91761.25;;;7.92;60.97
65376;BME280;51976;47.332;9.404;2023-04-01T09:28:12;91752.56;;;7.43;63.15
65376;BME280;51976;47.332;9.404;2023-04-01T09:30:54;91754.22;;;7.39;63.34
65376;BME280;51976;47.332;9.404;2023-04-01T09:34:10;91766.91;;;7.34;63.48
65376;BME280;51976;47.332;9.404;2023-04-01T09:37:02;91771.44;;;7.14;65.85
65376;BME280;51976;47.332;9.404;2023-04-01T09:39:37;91762.88;;;7.12;64.78
65376;BME280;51976;47.332;9.404;2023-04-01T09:42:15;91744.03;;;6.99;65.03
65376;BME280;51976;47.332;9.404;2023-04-01T09:45:01;91745.94;;;7.17;65.42
65376;BME280;51976;47.332;9.404;2023-04-01T09:47:56;91765.09;;;7.48;64.23
65376;BME280;51976;47.332;9.404;2023-04-01T09:50:34;91765.97;;;7.43;63.42
65376;BME280;51976;47.332;9.404;2023-04-01T09:53:42;91766.13;;;7.52;64.76
65376;BME280;51976;47.332;9.404;2023-04-01T09:56:51;91756.25;;;7.29;64.82
65376;BME280;51976;47.332;9.404;2023-04-01T09:59:40;91770.91;;;7.36;63.67
65376;BME280;51976;47.332;9.404;2023-04-01T10:02:40;91757.56;;;7.31;64.34
65376;BME280;51976;47.332;9.404;2023-04-01T10:05:39;91733.25;;;7.04;63.52
65376;BME280;51976;47.332;9.404;2023-04-01T10:08:47;91758.66;;;7.30;64.71
65376;BME280;51976;47.332;9.404;2023-04-01T10:11:41;91764.59;;;7.46;64.55
65376;BME280;51976;47.332;9.404;2023-04-01T10:14:39;91746.69;;;7.23;64.12
65376;BME280;51976;47.332;9.404;2023-04-01T10:17:30;91771.03;;;7.45;64.44
65376;BME280;51976;47.332;9.404;2023-04-01T10:20:24;91772.69;;;7.22;64.24
65376;BME280;51976;47.332;9.404;2023-04-01T10:26:08;91770.75;;;7.28;63.25
65376;BME280;51976;47.332;9.404;2023-04-01T10:28:59;91755.91;;;7.35;64.22
65376;BME280;51976;47.332;9.404;2023-04-01T10:32:57;91758.25;;;7.18;64.17
65376;BME280;51976;47.332;9.404;2023-04-01T10:34:56;91776.09;;;7.28;65.07
65376;BME280;51976;47.332;9.404;2023-04-01T10:38:02;91757.53;;;7.12;65.41
65376;BME280;51976;47.332;9.404;2023-04-01T10:40:38;91783.84;;;7.10;65.51
65376;BME280;51976;47.332;9.404;2023-04-01T10:43:30;91760.53;;;7.11;64.89
65376;BME280;51976;47.332;9.404;2023-04-01T10:46:13;91733.03;;;7.00;65.50
65376;BME280;51976;47.332;9.404;2023-04-01T10:49:10;91775.41;;;6.98;65.84
65376;BME280;51976;47.332;9.404;2023-04-01T10:52:17;91732.00;;;6.96;65.69
65376;BME280;51976;47.332;9.404;2023-04-01T10:55:14;91753.47;;;7.15;65.68
65376;BME280;51976;47.332;9.404;2023-04-01T10:58:21;91754.16;;;7.26;65.91
65376;BME280;51976;47.332;9.404;2023-04-01T11:04:14;91736.31;;;7.72;63.66
65376;BME280;51976;47.332;9.404;2023-04-01T11:07:16;91745.84;;;7.65;64.64
65376;BME280;51976;47.332;9.404;2023-04-01T11:13:14;91749.38;;;7.79;63.38
65376;BME280;51976;47.332;9.404;2023-04-01T11:16:25;91754.75;;;7.79;64.06
65376;BME280;51976;47.332;9.404;2023-04-01T11:22:23;91749.63;;;8.15;62.62
65376;BME280;51976;47.332;9.404;2023-04-01T11:25:25;91752.91;;;7.93;62.99
65376;BME280;51976;47.332;9.404;2023-04-01T11:34:20;91753.84;;;8.02;62.39
65376;BME280;51976;47.332;9.404;2023-04-01T11:40:29;91750.50;;;8.24;62.21
65376;BME280;51976;47.332;9.404;2023-04-01T11:43:08;91745.16;;;8.24;61.58
65376;BME280;51976;47.332;9.404;2023-04-01T11:45:45;91738.47;;;8.54;61.66
65376;BME280;51976;47.332;9.404;2023-04-01T11:48:38;91757.50;;;8.58;61.25
65376;BME280;51976;47.332;9.404;2023-04-01T11:51:29;91762.16;;;8.52;61.23
65376;BME280;51976;47.332;9.404;2023-04-01T11:54:12;91760.25;;;8.39;61.13
65376;BME280;51976;47.332;9.404;2023-04-01T11:59:54;91764.16;;;8.46;62.08
65376;BME280;51976;47.332;9.404;2023-04-01T12:08:19;91758.03;;;8.87;60.48
65376;BME280;51976;47.332;9.404;2023-04-01T12:11:09;91736.81;;;9.13;59.88
65376;BME280;51976;47.332;9.404;2023-04-01T12:13:59;91744.03;;;9.54;60.29
65376;BME280;51976;47.332;9.404;2023-04-01T12:16:51;91746.47;;;9.28;59.76
65376;BME280;51976;47.332;9.404;2023-04-01T12:19:29;91747.66;;;8.80;60.51
65376;BME280;51976;47.332;9.404;2023-04-01T12:22:11;91775.66;;;8.93;59.94
65376;BME280;51976;47.332;9.404;2023-04-01T12:24:56;91782.31;;;8.96;61.40
65376;BME280;51976;47.332;9.404;2023-04-01T12:30:42;91789.56;;;8.81;60.36
65376;BME280;51976;47.332;9.404;2023-04-01T12:33:35;91788.41;;;9.15;61.09
65376;BME280;51976;47.332;9.404;2023-04-01T12:36:23;91776.63;;;9.52;59.52
65376;BME280;51976;47.332;9.404;2023-04-01T12:39:40;91772.91;;;9.62;59.80
65376;BME280;51976;47.332;9.404;2023-04-01T12:42:07;91751.06;;;9.99;58.22
65376;BME280;51976;47.332;9.404;2023-04-01T12:44:49;91742.38;;;9.80;56.30
65376;BME280;51976;47.332;9.404;2023-04-01T12:47:50;91761.66;;;9.96;56.92
65376;BME280;51976;47.332;9.404;2023-04-01T12:50:40;91772.88;;;9.75;58.62
65376;BME280;51976;47.332;9.404;2023-04-01T12:53:37;91788.63;;;9.68;57.35
65376;BME280;51976;47.332;9.404;2023-04-01T12:56:23;91788.69;;;9.55;58.27
65376;BME280;51976;47.332;9.404;2023-04-01T12:58:58;91788.53;;;9.60;58.96
65376;BME280;51976;47.332;9.404;2023-04-01T13:01:40;91783.41;;;9.85;59.25
65376;BME280;51976;47.332;9.404;2023-04-01T13:07:28;91765.25;;;9.55;58.17
65376;BME280;51976;47.332;9.404;2023-04-01T13:10:21;91765.81;;;9.79;57.93
65376;BME280;51976;47.332;9.404;2023-04-01T13:13:05;91763.00;;;9.84;57.44
65376;BME280;51976;47.332;9.404;2023-04-01T13:15:45;91771.00;;;9.62;57.10
65376;BME280;51976;47.332;9.404;2023-04-01T13:18:29;91770.25;;;9.48;57.61
65376;BME280;51976;47.332;9.404;2023-04-01T13:21:08;91769.59;;;9.29;58.01
65376;BME280;51976;47.332;9.404;2023-04-01T13:24:02;91801.13;;;8.96;59.25
65376;BME280;51976;47.332;9.404;2023-04-01T13:26:46;91811.97;;;8.91;60.64
65376;BME280;51976;47.332;9.404;2023-04-01T13:29:31;91836.53;;;8.84;62.58
65376;BME280;51976;47.332;9.404;2023-04-01T13:32:34;91795.28;;;8.47;63.20
65376;BME280;51976;47.332;9.404;2023-04-01T13:35:18;91794.50;;;8.61;64.93
65376;BME280;51976;47.332;9.404;2023-04-01T13:38:23;91790.28;;;8.87;64.23
65376;BME280;51976;47.332;9.404;2023-04-01T13:41:45;91772.44;;;8.77;61.69
65376;BME280;51976;47.332;9.404;2023-04-01T13:43:57;91786.06;;;8.81;61.58
65376;BME280;51976;47.332;9.404;2023-04-01T13:46:46;91760.91;;;8.91;61.23
65376;BME280;51976;47.332;9.404;2023-04-01T13:49:36;91777.94;;;9.27;60.83
65376;BME280;51976;47.332;9.404;2023-04-01T13:52:20;91756.44;;;9.13;60.63
65376;BME280;51976;47.332;9.404;2023-04-01T13:55:14;91785.22;;;9.27;59.88
65376;BME280;51976;47.332;9.404;2023-04-01T13:58:10;91771.34;;;9.47;59.59
65376;BME280;51976;47.332;9.404;2023-04-01T14:00:56;91765.25;;;9.55;59.03
65376;BME280;51976;47.332;9.404;2023-04-01T14:03:37;91764.63;;;9.72;59.38
65376;BME280;51976;47.332;9.404;2023-04-01T14:06:31;91766.94;;;9.87;58.20
65376;BME280;51976;47.332;9.404;2023-04-01T14:09:25;91758.53;;;9.66;58.83
65376;BME280;51976;47.332;9.404;2023-04-01T14:12:13;91764.41;;;9.68;57.81
65376;BME280;51976;47.332;9.404;2023-04-01T14:15:00;91757.03;;;9.74;56.30
65376;BME280;51976;47.332;9.404;2023-04-01T14:17:47;91771.97;;;9.80;56.53
65376;BME280;51976;47.332;9.404;2023-04-01T14:20:33;91765.13;;;9.74;55.97
65376;BME280;51976;47.332;9.404;2023-04-01T14:23:31;91760.34;;;9.71;55.63
65376;BME280;51976;47.332;9.404;2023-04-01T14:26:13;91763.09;;;9.79;55.69
65376;BME280;51976;47.332;9.404;2023-04-01T14:32:10;91750.38;;;9.58;55.05
65376;BME280;51976;47.332;9.404;2023-04-01T14:34:53;91759.03;;;9.68;54.99
65376;BME280;51976;47.332;9.404;2023-04-01T14:40:48;91747.38;;;9.59;56.11
65376;BME280;51976;47.332;9.404;2023-04-01T14:43:36;91743.34;;;9.48;55.85
65376;BME280;51976;47.332;9.404;2023-04-01T14:46:40;91747.22;;;9.56;55.63
65376;BME280;51976;47.332;9.404;2023-04-01T14:48:59;91743.78;;;9.77;55.04
65376;BME280;51976;47.332;9.404;2023-04-01T14:51:33;91732.28;;;9.49;55.02
65376;BME280;51976;47.332;9.404;2023-04-01T14:54:06;91725.13;;;9.81;55.70
65376;BME280;51976;47.332;9.404;2023-04-01T14:56:42;91749.66;;;10.02;54.69
65376;BME280;51976;47.332;9.404;2023-04-01T15:05:16;91750.28;;;9.99;56.33
65376;BME280;51976;47.332;9.404;2023-04-01T15:08:09;91748.97;;;9.74;54.85
65376;BME280;51976;47.332;9.404;2023-04-01T15:14:02;91755.28;;;9.92;54.70
65376;BME280;51976;47.332;9.404;2023-04-01T15:19:54;91744.63;;;9.50;56.15
65376;BME280;51976;47.332;9.404;2023-04-01T15:22:44;91763.97;;;9.53;55.99
65376;BME280;51976;47.332;9.404;2023-04-01T15:25:39;91759.50;;;9.48;55.33
65376;BME280;51976;47.332;9.404;2023-04-01T15:28:14;91759.50;;;9.48;56.81
65376;BME280;51976;47.332;9.404;2023-04-01T15:31:05;91748.25;;;9.19;57.54